sensor_id;sensor_type;location;lat;lon;timestamp;P1;durP1;ratioP1;P2;durP2;ratioP2
13927;SDS011;7036;50.834;4.718;2023-04-15T00:00:45;1.70;;;1.20;;
13927;SDS011;7036;50.834;4.718;2023-04-15T00:03:12;4.00;;;1.50;;
13927;SDS011;7036;50.834;4.718;2023-04-15T00:05:40;2.88;;;1.65;;
13927;SDS011;7036;50.834;4.718;2023-04-15T00:08:08;4.47;;;1.45;;
13927;SDS011;7036;50.834;4.718;2023-04-15T00:10:36;2.33;;;1.30;;
13927;SDS011;7036;50.834;4.718;2023-04-15T00:13:04;3.03;;;1.85;;
13927;SDS011;7036;50.834;4.718;2023-04-15T00:15:32;1.77;;;1.55;;
13927;SDS011;7036;50.834;4.718;2023-04-15T00:17:59;3.15;;;1.70;;
13927;SDS011;7036;50.834;4.718;2023-04-15T00:20:27;3.05;;;1.50;;
13927;SDS011;7036;50.834;4.718;2023-04-15T00:22:55;1.30;;;1.20;;
13927;SDS011;7036;50.834;4.718;2023-04-15T00:25:22;1.83;;;1.45;;
13927;SDS011;7036;50.834;4.718;2023-04-15T00:27:50;1.63;;;1.40;;
13927;SDS011;7036;50.834;4.718;2023-04-15T00:30:18;1.50;;;1.25;;
13927;SDS011;7036;50.834;4.718;2023-04-15T00:32:45;1.63;;;1.17;;
13927;SDS011;7036;50.834;4.718;2023-04-15T00:35:12;2.63;;;1.67;;
13927;SDS011;7036;50.834;4.718;2023-04-15T00:37:41;2.85;;;1.52;;
13927;SDS011;7036;50.834;4.718;2023-04-15T00:40:10;1.20;;;1.10;;
13927;SDS011;7036;50.834;4.718;2023-04-15T00:42:35;2.97;;;1.35;;
13927;SDS011;7036;50.834;4.718;2023-04-15T00:45:03;1.60;;;1.10;;
13927;SDS011;7036;50.834;4.718;2023-04-15T00:47:31;2.07;;;1.33;;
13927;SDS011;7036;50.834;4.718;2023-04-15T00:49:57;1.77;;;1.30;;
13927;SDS011;7036;50.834;4.718;2023-04-15T00:52:25;3.08;;;1.63;;
13927;SDS011;7036;50.834;4.718;2023-04-15T00:54:52;3.35;;;1.50;;
13927;SDS011;7036;50.834;4.718;2023-04-15T00:57:20;2.83;;;1.50;;
13927;SDS011;7036;50.834;4.718;2023-04-15T00:59:47;3.05;;;1.80;;
13927;SDS011;7036;50.834;4.718;2023-04-15T01:02:16;1.38;;;1.20;;
13927;SDS011;7036;50.834;4.718;2023-04-15T01:04:42;2.23;;;1.67;;
13927;SDS011;7036;50.834;4.718;2023-04-15T01:07:10;2.05;;;1.30;;
13927;SDS011;7036;50.834;4.718;2023-04-15T01:09:37;1.92;;;1.35;;
13927;SDS011;7036;50.834;4.718;2023-04-15T01:12:04;1.70;;;1.30;;
13927;SDS011;7036;50.834;4.718;2023-04-15T01:14:32;1.85;;;1.33;;
13927;SDS011;7036;50.834;4.718;2023-04-15T01:16:58;3.28;;;1.42;;
13927;SDS011;7036;50.834;4.718;2023-04-15T01:19:26;1.80;;;1.30;;
13927;SDS011;7036;50.834;4.718;2023-04-15T01:21:53;2.75;;;1.48;;
13927;SDS011;7036;50.834;4.718;2023-04-15T01:24:20;1.23;;;1.13;;
13927;SDS011;7036;50.834;4.718;2023-04-15T01:26:47;3.40;;;1.35;;
13927;SDS011;7036;50.834;4.718;2023-04-15T01:29:14;2.63;;;1.73;;
13927;SDS011;7036;50.834;4.718;2023-04-15T01:31:52;1.80;;;1.50;;
13927;SDS011;7036;50.834;4.718;2023-04-15T01:34:15;1.77;;;1.43;;
13927;SDS011;7036;50.834;4.718;2023-04-15T01:36:42;1.45;;;1.20;;
13927;SDS011;7036;50.834;4.718;2023-04-15T01:39:09;1.58;;;1.42;;
13927;SDS011;7036;50.834;4.718;2023-04-15T01:41:37;2.13;;;1.77;;
13927;SDS011;7036;50.834;4.718;2023-04-15T01:44:05;1.40;;;1.30;;
13927;SDS011;7036;50.834;4.718;2023-04-15T01:46:32;1.65;;;1.52;;
13927;SDS011;7036;50.834;4.718;2023-04-15T01:48:59;3.17;;;1.55;;
13927;SDS011;7036;50.834;4.718;2023-04-15T01:51:26;2.25;;;1.40;;
13927;SDS011;7036;50.834;4.718;2023-04-15T01:53:53;1.48;;;1.20;;
13927;SDS011;7036;50.834;4.718;2023-04-15T01:56:21;1.63;;;1.40;;
13927;SDS011;7036;50.834;4.718;2023-04-15T01:58:48;1.42;;;1.33;;
13927;SDS011;7036;50.834;4.718;2023-04-15T02:01:16;2.03;;;1.33;;
13927;SDS011;7036;50.834;4.718;2023-04-15T02:03:44;2.10;;;1.20;;
13927;SDS011;7036;50.834;4.718;2023-04-15T02:06:11;2.35;;;1.50;;
13927;SDS011;7036;50.834;4.718;2023-04-15T02:08:38;2.95;;;1.70;;
13927;SDS011;7036;50.834;4.718;2023-04-15T02:11:06;1.60;;;1.40;;
13927;SDS011;7036;50.834;4.718;2023-04-15T02:13:33;2.53;;;1.42;;
13927;SDS011;7036;50.834;4.718;2023-04-15T02:16:01;1.52;;;1.25;;
13927;SDS011;7036;50.834;4.718;2023-04-15T02:18:28;1.50;;;1.40;;
13927;SDS011;7036;50.834;4.718;2023-04-15T02:20:56;2.20;;;1.38;;
13927;SDS011;7036;50.834;4.718;2023-04-15T02:23:25;2.75;;;1.63;;
13927;SDS011;7036;50.834;4.718;2023-04-15T02:25:51;2.63;;;1.60;;
13927;SDS011;7036;50.834;4.718;2023-04-15T02:28:18;1.25;;;1.15;;
13927;SDS011;7036;50.834;4.718;2023-04-15T02:30:49;1.55;;;1.42;;
13927;SDS011;7036;50.834;4.718;2023-04-15T02:33:15;2.20;;;1.40;;
13927;SDS011;7036;50.834;4.718;2023-04-15T02:35:42;1.50;;;1.40;;
13927;SDS011;7036;50.834;4.718;2023-04-15T02:38:11;1.80;;;1.70;;
13927;SDS011;7036;50.834;4.718;2023-04-15T02:40:37;2.47;;;1.70;;
13927;SDS011;7036;50.834;4.718;2023-04-15T02:43:04;1.60;;;1.50;;
13927;SDS011;7036;50.834;4.718;2023-04-15T02:45:34;2.50;;;1.50;;
13927;SDS011;7036;50.834;4.718;2023-04-15T02:48:01;3.40;;;1.48;;
13927;SDS011;7036;50.834;4.718;2023-04-15T02:50:29;1.73;;;1.48;;
13927;SDS011;7036;50.834;4.718;2023-04-15T02:52:56;2.37;;;1.80;;
13927;SDS011;7036;50.834;4.718;2023-04-15T02:55:23;2.03;;;1.50;;
13927;SDS011;7036;50.834;4.718;2023-04-15T02:57:51;2.17;;;1.20;;
13927;SDS011;7036;50.834;4.718;2023-04-15T03:00:18;1.98;;;1.48;;
13927;SDS011;7036;50.834;4.718;2023-04-15T03:02:46;3.47;;;1.52;;
13927;SDS011;7036;50.834;4.718;2023-04-15T03:05:13;1.75;;;1.42;;
13927;SDS011;7036;50.834;4.718;2023-04-15T03:07:41;2.72;;;1.60;;
13927;SDS011;7036;50.834;4.718;2023-04-15T03:10:09;1.27;;;1.17;;
13927;SDS011;7036;50.834;4.718;2023-04-15T03:12:36;2.40;;;1.65;;
13927;SDS011;7036;50.834;4.718;2023-04-15T03:15:03;2.50;;;1.63;;
13927;SDS011;7036;50.834;4.718;2023-04-15T03:17:31;1.63;;;1.52;;
13927;SDS011;7036;50.834;4.718;2023-04-15T03:19:59;2.25;;;1.60;;
13927;SDS011;7036;50.834;4.718;2023-04-15T03:22:27;2.88;;;1.90;;
13927;SDS011;7036;50.834;4.718;2023-04-15T03:24:54;1.33;;;1.23;;
13927;SDS011;7036;50.834;4.718;2023-04-15T03:27:21;1.40;;;1.20;;
13927;SDS011;7036;50.834;4.718;2023-04-15T03:29:48;2.00;;;1.40;;
13927;SDS011;7036;50.834;4.718;2023-04-15T03:32:16;2.92;;;1.88;;
13927;SDS011;7036;50.834;4.718;2023-04-15T03:34:44;2.28;;;1.42;;
13927;SDS011;7036;50.834;4.718;2023-04-15T03:37:10;1.90;;;1.70;;
13927;SDS011;7036;50.834;4.718;2023-04-15T03:39:37;3.25;;;1.60;;
13927;SDS011;7036;50.834;4.718;2023-04-15T03:42:05;2.00;;;1.52;;
13927;SDS011;7036;50.834;4.718;2023-04-15T03:44:33;1.92;;;1.83;;
13927;SDS011;7036;50.834;4.718;2023-04-15T03:47:00;2.70;;;2.10;;
13927;SDS011;7036;50.834;4.718;2023-04-15T03:49:28;2.28;;;1.63;;
13927;SDS011;7036;50.834;4.718;2023-04-15T03:51:55;1.83;;;1.50;;
13927;SDS011;7036;50.834;4.718;2023-04-15T03:54:22;1.73;;;1.63;;
13927;SDS011;7036;50.834;4.718;2023-04-15T03:56:50;2.17;;;1.70;;
13927;SDS011;7036;50.834;4.718;2023-04-15T03:59:17;1.75;;;1.65;;
13927;SDS011;7036;50.834;4.718;2023-04-15T04:01:44;1.52;;;1.42;;
13927;SDS011;7036;50.834;4.718;2023-04-15T04:04:13;1.80;;;1.60;;
13927;SDS011;7036;50.834;4.718;2023-04-15T04:06:41;2.22;;;1.75;;
13927;SDS011;7036;50.834;4.718;2023-04-15T04:09:08;3.70;;;1.85;;
13927;SDS011;7036;50.834;4.718;2023-04-15T04:11:36;1.85;;;1.58;;
13927;SDS011;7036;50.834;4.718;2023-04-15T04:14:03;1.92;;;1.50;;
13927;SDS011;7036;50.834;4.718;2023-04-15T04:16:30;1.92;;;1.42;;
13927;SDS011;7036;50.834;4.718;2023-04-15T04:18:59;1.90;;;1.30;;
13927;SDS011;7036;50.834;4.718;2023-04-15T04:21:26;1.63;;;1.23;;
13927;SDS011;7036;50.834;4.718;2023-04-15T04:23:53;4.40;;;1.90;;
13927;SDS011;7036;50.834;4.718;2023-04-15T04:26:20;2.35;;;1.65;;
13927;SDS011;7036;50.834;4.718;2023-04-15T04:28:48;3.00;;;1.35;;
13927;SDS011;7036;50.834;4.718;2023-04-15T04:31:15;2.42;;;1.65;;
13927;SDS011;7036;50.834;4.718;2023-04-15T04:33:43;2.05;;;1.77;;
13927;SDS011;7036;50.834;4.718;2023-04-15T04:36:11;2.08;;;1.52;;
13927;SDS011;7036;50.834;4.718;2023-04-15T04:38:38;1.98;;;1.63;;
13927;SDS011;7036;50.834;4.718;2023-04-15T04:41:06;1.88;;;1.77;;
13927;SDS011;7036;50.834;4.718;2023-04-15T04:43:34;2.53;;;1.85;;
13927;SDS011;7036;50.834;4.718;2023-04-15T04:46:01;2.53;;;1.58;;
13927;SDS011;7036;50.834;4.718;2023-04-15T04:48:28;1.63;;;1.50;;
13927;SDS011;7036;50.834;4.718;2023-04-15T04:50:56;2.15;;;1.55;;
13927;SDS011;7036;50.834;4.718;2023-04-15T04:53:24;1.98;;;1.50;;
13927;SDS011;7036;50.834;4.718;2023-04-15T04:55:52;2.25;;;1.83;;
13927;SDS011;7036;50.834;4.718;2023-04-15T04:58:19;2.90;;;2.03;;
13927;SDS011;7036;50.834;4.718;2023-04-15T05:00:48;1.92;;;1.80;;
13927;SDS011;7036;50.834;4.718;2023-04-15T05:03:14;2.90;;;1.60;;
13927;SDS011;7036;50.834;4.718;2023-04-15T05:05:42;2.35;;;1.73;;
13927;SDS011;7036;50.834;4.718;2023-04-15T05:08:10;2.33;;;1.83;;
13927;SDS011;7036;50.834;4.718;2023-04-15T05:10:39;2.35;;;1.77;;
13927;SDS011;7036;50.834;4.718;2023-04-15T05:13:06;2.20;;;2.00;;
13927;SDS011;7036;50.834;4.718;2023-04-15T05:15:33;2.78;;;1.75;;
13927;SDS011;7036;50.834;4.718;2023-04-15T05:18:00;1.83;;;1.63;;
13927;SDS011;7036;50.834;4.718;2023-04-15T05:20:28;2.90;;;1.67;;
13927;SDS011;7036;50.834;4.718;2023-04-15T05:22:56;1.88;;;1.65;;
13927;SDS011;7036;50.834;4.718;2023-04-15T05:25:24;3.47;;;1.65;;
13927;SDS011;7036;50.834;4.718;2023-04-15T05:27:51;7.53;;;1.77;;
13927;SDS011;7036;50.834;4.718;2023-04-15T05:30:20;2.08;;;1.60;;
13927;SDS011;7036;50.834;4.718;2023-04-15T05:32:47;2.07;;;1.77;;
13927;SDS011;7036;50.834;4.718;2023-04-15T05:35:16;2.05;;;1.63;;
13927;SDS011;7036;50.834;4.718;2023-04-15T05:37:43;1.97;;;1.63;;
13927;SDS011;7036;50.834;4.718;2023-04-15T05:40:11;2.08;;;1.60;;
13927;SDS011;7036;50.834;4.718;2023-04-15T05:42:38;2.17;;;1.80;;
13927;SDS011;7036;50.834;4.718;2023-04-15T05:45:05;3.17;;;1.70;;
13927;SDS011;7036;50.834;4.718;2023-04-15T05:47:32;1.70;;;1.58;;
13927;SDS011;7036;50.834;4.718;2023-04-15T05:50:00;2.25;;;1.70;;
13927;SDS011;7036;50.834;4.718;2023-04-15T05:52:28;1.58;;;1.48;;
13927;SDS011;7036;50.834;4.718;2023-04-15T05:54:55;2.53;;;1.73;;
13927;SDS011;7036;50.834;4.718;2023-04-15T05:57:23;1.90;;;1.70;;
13927;SDS011;7036;50.834;4.718;2023-04-15T05:59:50;2.45;;;1.70;;
13927;SDS011;7036;50.834;4.718;2023-04-15T06:02:18;2.53;;;1.70;;
13927;SDS011;7036;50.834;4.718;2023-04-15T06:04:46;1.60;;;1.50;;
13927;SDS011;7036;50.834;4.718;2023-04-15T06:07:14;3.20;;;2.03;;
13927;SDS011;7036;50.834;4.718;2023-04-15T06:09:42;1.90;;;1.55;;
13927;SDS011;7036;50.834;4.718;2023-04-15T06:12:10;1.95;;;1.52;;
13927;SDS011;7036;50.834;4.718;2023-04-15T06:14:38;1.70;;;1.60;;
13927;SDS011;7036;50.834;4.718;2023-04-15T06:17:06;3.17;;;1.80;;
13927;SDS011;7036;50.834;4.718;2023-04-15T06:19:34;2.67;;;1.95;;
13927;SDS011;7036;50.834;4.718;2023-04-15T06:22:02;3.17;;;2.00;;
13927;SDS011;7036;50.834;4.718;2023-04-15T06:24:29;1.92;;;1.70;;
13927;SDS011;7036;50.834;4.718;2023-04-15T06:26:56;2.28;;;2.08;;
13927;SDS011;7036;50.834;4.718;2023-04-15T06:29:24;2.28;;;1.90;;
13927;SDS011;7036;50.834;4.718;2023-04-15T06:31:51;2.00;;;1.48;;
13927;SDS011;7036;50.834;4.718;2023-04-15T06:34:18;2.55;;;2.25;;
13927;SDS011;7036;50.834;4.718;2023-04-15T06:36:45;2.30;;;1.80;;
13927;SDS011;7036;50.834;4.718;2023-04-15T06:39:12;2.28;;;1.70;;
13927;SDS011;7036;50.834;4.718;2023-04-15T06:41:40;3.42;;;2.22;;
13927;SDS011;7036;50.834;4.718;2023-04-15T06:44:08;2.47;;;1.90;;
13927;SDS011;7036;50.834;4.718;2023-04-15T06:46:36;1.52;;;1.42;;
13927;SDS011;7036;50.834;4.718;2023-04-15T06:49:04;3.25;;;2.00;;
13927;SDS011;7036;50.834;4.718;2023-04-15T06:51:33;2.95;;;2.13;;
13927;SDS011;7036;50.834;4.718;2023-04-15T06:53:59;2.85;;;2.05;;
13927;SDS011;7036;50.834;4.718;2023-04-15T06:56:27;2.97;;;1.95;;
13927;SDS011;7036;50.834;4.718;2023-04-15T06:58:54;3.75;;;2.08;;
13927;SDS011;7036;50.834;4.718;2023-04-15T07:01:21;4.05;;;1.88;;
13927;SDS011;7036;50.834;4.718;2023-04-15T07:03:49;2.10;;;1.90;;
13927;SDS011;7036;50.834;4.718;2023-04-15T07:06:17;3.90;;;2.00;;
13927;SDS011;7036;50.834;4.718;2023-04-15T07:08:45;2.42;;;1.80;;
13927;SDS011;7036;50.834;4.718;2023-04-15T07:11:13;3.33;;;2.08;;
13927;SDS011;7036;50.834;4.718;2023-04-15T07:13:41;2.35;;;1.88;;
13927;SDS011;7036;50.834;4.718;2023-04-15T07:16:09;3.92;;;2.08;;
13927;SDS011;7036;50.834;4.718;2023-04-15T07:18:37;4.80;;;2.30;;
13927;SDS011;7036;50.834;4.718;2023-04-15T07:21:05;3.92;;;2.13;;
13927;SDS011;7036;50.834;4.718;2023-04-15T07:23:33;5.25;;;2.45;;
13927;SDS011;7036;50.834;4.718;2023-04-15T07:26:01;2.92;;;2.13;;
13927;SDS011;7036;50.834;4.718;2023-04-15T07:28:29;3.95;;;2.25;;
13927;SDS011;7036;50.834;4.718;2023-04-15T07:30:57;2.13;;;1.88;;
13927;SDS011;7036;50.834;4.718;2023-04-15T07:33:25;7.18;;;2.10;;
13927;SDS011;7036;50.834;4.718;2023-04-15T07:35:52;3.55;;;1.95;;
13927;SDS011;7036;50.834;4.718;2023-04-15T07:38:19;2.65;;;1.92;;
13927;SDS011;7036;50.834;4.718;2023-04-15T07:40:46;4.22;;;2.20;;
13927;SDS011;7036;50.834;4.718;2023-04-15T07:43:14;3.13;;;2.08;;
13927;SDS011;7036;50.834;4.718;2023-04-15T07:45:42;3.45;;;2.25;;
13927;SDS011;7036;50.834;4.718;2023-04-15T07:48:10;3.45;;;2.45;;
13927;SDS011;7036;50.834;4.718;2023-04-15T07:50:38;4.22;;;2.30;;
13927;SDS011;7036;50.834;4.718;2023-04-15T07:53:06;2.50;;;2.03;;
13927;SDS011;7036;50.834;4.718;2023-04-15T07:55:34;2.53;;;2.33;;
13927;SDS011;7036;50.834;4.718;2023-04-15T07:58:02;3.03;;;2.40;;
13927;SDS011;7036;50.834;4.718;2023-04-15T08:00:30;4.47;;;2.35;;
13927;SDS011;7036;50.834;4.718;2023-04-15T08:02:58;2.88;;;2.22;;
13927;SDS011;7036;50.834;4.718;2023-04-15T08:05:26;3.60;;;2.63;;
13927;SDS011;7036;50.834;4.718;2023-04-15T08:07:53;2.90;;;2.17;;
13927;SDS011;7036;50.834;4.718;2023-04-15T08:10:20;5.47;;;2.83;;
13927;SDS011;7036;50.834;4.718;2023-04-15T08:12:48;3.65;;;2.42;;
13927;SDS011;7036;50.834;4.718;2023-04-15T08:15:15;3.35;;;2.50;;
13927;SDS011;7036;50.834;4.718;2023-04-15T08:17:42;5.03;;;2.22;;
13927;SDS011;7036;50.834;4.718;2023-04-15T08:20:09;4.53;;;2.35;;
13927;SDS011;7036;50.834;4.718;2023-04-15T08:22:37;3.22;;;2.15;;
13927;SDS011;7036;50.834;4.718;2023-04-15T08:25:05;4.15;;;2.17;;
13927;SDS011;7036;50.834;4.718;2023-04-15T08:27:33;4.03;;;2.40;;
13927;SDS011;7036;50.834;4.718;2023-04-15T08:30:00;4.43;;;2.30;;
13927;SDS011;7036;50.834;4.718;2023-04-15T08:32:27;3.07;;;2.40;;
13927;SDS011;7036;50.834;4.718;2023-04-15T08:34:55;4.35;;;2.30;;
13927;SDS011;7036;50.834;4.718;2023-04-15T08:37:23;2.30;;;2.10;;
13927;SDS011;7036;50.834;4.718;2023-04-15T08:39:51;3.13;;;2.25;;
13927;SDS011;7036;50.834;4.718;2023-04-15T08:42:19;2.10;;;1.77;;
13927;SDS011;7036;50.834;4.718;2023-04-15T08:44:45;3.72;;;2.42;;
13927;SDS011;7036;50.834;4.718;2023-04-15T08:47:12;4.50;;;2.50;;
13927;SDS011;7036;50.834;4.718;2023-04-15T08:49:40;4.40;;;2.30;;
13927;SDS011;7036;50.834;4.718;2023-04-15T08:52:08;4.07;;;2.35;;
13927;SDS011;7036;50.834;4.718;2023-04-15T08:54:35;4.18;;;2.30;;
13927;SDS011;7036;50.834;4.718;2023-04-15T08:57:03;5.00;;;2.20;;
13927;SDS011;7036;50.834;4.718;2023-04-15T08:59:31;2.55;;;2.15;;
13927;SDS011;7036;50.834;4.718;2023-04-15T09:01:59;4.30;;;2.45;;
13927;SDS011;7036;50.834;4.718;2023-04-15T09:04:27;2.85;;;2.20;;
13927;SDS011;7036;50.834;4.718;2023-04-15T09:06:55;4.50;;;2.33;;
13927;SDS011;7036;50.834;4.718;2023-04-15T09:09:23;6.88;;;2.42;;
13927;SDS011;7036;50.834;4.718;2023-04-15T09:11:50;5.75;;;2.90;;
13927;SDS011;7036;50.834;4.718;2023-04-15T09:14:18;7.20;;;3.17;;
13927;SDS011;7036;50.834;4.718;2023-04-15T09:16:59;4.38;;;3.20;;
13927;SDS011;7036;50.834;4.718;2023-04-15T09:19:25;6.87;;;2.80;;
13927;SDS011;7036;50.834;4.718;2023-04-15T09:21:53;8.73;;;3.75;;
13927;SDS011;7036;50.834;4.718;2023-04-15T09:24:20;7.93;;;3.40;;
13927;SDS011;7036;50.834;4.718;2023-04-15T09:26:51;6.68;;;4.03;;
13927;SDS011;7036;50.834;4.718;2023-04-15T09:29:15;5.25;;;3.30;;
13927;SDS011;7036;50.834;4.718;2023-04-15T09:31:43;5.55;;;3.42;;
13927;SDS011;7036;50.834;4.718;2023-04-15T09:34:10;4.82;;;2.67;;
13927;SDS011;7036;50.834;4.718;2023-04-15T09:39:14;5.33;;;3.30;;
13927;SDS011;7036;50.834;4.718;2023-04-15T09:41:42;4.95;;;3.10;;
13927;SDS011;7036;50.834;4.718;2023-04-15T09:44:23;6.63;;;3.20;;
13927;SDS011;7036;50.834;4.718;2023-04-15T09:46:49;8.03;;;3.33;;
13927;SDS011;7036;50.834;4.718;2023-04-15T09:49:17;4.53;;;2.78;;
13927;SDS011;7036;50.834;4.718;2023-04-15T09:51:45;3.90;;;3.35;;
13927;SDS011;7036;50.834;4.718;2023-04-15T09:54:12;8.20;;;3.28;;
13927;SDS011;7036;50.834;4.718;2023-04-15T09:56:40;5.18;;;3.40;;
13927;SDS011;7036;50.834;4.718;2023-04-15T09:59:08;6.65;;;3.50;;
13927;SDS011;7036;50.834;4.718;2023-04-15T10:01:35;3.73;;;2.63;;
13927;SDS011;7036;50.834;4.718;2023-04-15T10:04:04;4.80;;;3.58;;
13927;SDS011;7036;50.834;4.718;2023-04-15T10:06:31;8.00;;;3.70;;
13927;SDS011;7036;50.834;4.718;2023-04-15T10:08:58;3.90;;;3.45;;
13927;SDS011;7036;50.834;4.718;2023-04-15T10:11:27;6.20;;;3.65;;
13927;SDS011;7036;50.834;4.718;2023-04-15T10:13:55;6.47;;;3.25;;
13927;SDS011;7036;50.834;4.718;2023-04-15T10:16:22;7.25;;;3.47;;
13927;SDS011;7036;50.834;4.718;2023-04-15T10:18:53;4.78;;;2.90;;
13927;SDS011;7036;50.834;4.718;2023-04-15T10:21:17;6.83;;;3.50;;
13927;SDS011;7036;50.834;4.718;2023-04-15T10:23:45;5.45;;;3.13;;
13927;SDS011;7036;50.834;4.718;2023-04-15T10:26:12;5.25;;;3.42;;
13927;SDS011;7036;50.834;4.718;2023-04-15T10:28:40;6.07;;;3.50;;
13927;SDS011;7036;50.834;4.718;2023-04-15T10:31:10;7.15;;;3.17;;
13927;SDS011;7036;50.834;4.718;2023-04-15T10:33:35;4.70;;;3.17;;
13927;SDS011;7036;50.834;4.718;2023-04-15T10:36:02;7.25;;;3.55;;
13927;SDS011;7036;50.834;4.718;2023-04-15T10:41:22;3.27;;;2.90;;
13927;SDS011;7036;50.834;4.718;2023-04-15T10:43:54;5.97;;;3.40;;
13927;SDS011;7036;50.834;4.718;2023-04-15T10:46:44;5.43;;;3.07;;
13927;SDS011;7036;50.834;4.718;2023-04-15T10:49:23;11.00;;;3.37;;
13927;SDS011;7036;50.834;4.718;2023-04-15T10:51:50;4.27;;;3.00;;
13927;SDS011;7036;50.834;4.718;2023-04-15T10:54:15;5.50;;;3.10;;
13927;SDS011;7036;50.834;4.718;2023-04-15T10:56:45;3.60;;;3.30;;
13927;SDS011;7036;50.834;4.718;2023-04-15T10:59:12;5.73;;;3.53;;
13927;SDS011;7036;50.834;4.718;2023-04-15T11:01:50;5.88;;;3.38;;
13927;SDS011;7036;50.834;4.718;2023-04-15T11:04:49;6.30;;;3.23;;
13927;SDS011;7036;50.834;4.718;2023-04-15T11:06:43;4.45;;;3.33;;
13927;SDS011;7036;50.834;4.718;2023-04-15T11:09:29;4.90;;;3.22;;
13927;SDS011;7036;50.834;4.718;2023-04-15T11:14:41;5.53;;;3.00;;
13927;SDS011;7036;50.834;4.718;2023-04-15T11:17:07;4.70;;;2.97;;
13927;SDS011;7036;50.834;4.718;2023-04-15T11:19:37;3.25;;;2.95;;
13927;SDS011;7036;50.834;4.718;2023-04-15T11:22:10;4.00;;;2.67;;
13927;SDS011;7036;50.834;4.718;2023-04-15T11:24:45;4.63;;;2.93;;
13927;SDS011;7036;50.834;4.718;2023-04-15T11:27:05;4.15;;;2.75;;
13927;SDS011;7036;50.834;4.718;2023-04-15T11:29:32;4.97;;;3.22;;
13927;SDS011;7036;50.834;4.718;2023-04-15T11:32:10;6.38;;;3.60;;
13927;SDS011;7036;50.834;4.718;2023-04-15T11:34:34;6.10;;;3.13;;
13927;SDS011;7036;50.834;4.718;2023-04-15T11:37:05;4.45;;;2.90;;
13927;SDS011;7036;50.834;4.718;2023-04-15T11:39:31;3.77;;;2.50;;
13927;SDS011;7036;50.834;4.718;2023-04-15T11:41:59;8.27;;;2.92;;
13927;SDS011;7036;50.834;4.718;2023-04-15T11:44:27;7.07;;;3.33;;
13927;SDS011;7036;50.834;4.718;2023-04-15T11:46:55;3.83;;;2.63;;
13927;SDS011;7036;50.834;4.718;2023-04-15T11:49:29;4.38;;;3.20;;
13927;SDS011;7036;50.834;4.718;2023-04-15T11:51:56;5.50;;;3.40;;
13927;SDS011;7036;50.834;4.718;2023-04-15T11:54:24;6.72;;;3.13;;
13927;SDS011;7036;50.834;4.718;2023-04-15T11:56:51;3.28;;;2.58;;
13927;SDS011;7036;50.834;4.718;2023-04-15T11:59:18;3.80;;;2.45;;
13927;SDS011;7036;50.834;4.718;2023-04-15T12:01:46;6.22;;;2.70;;
13927;SDS011;7036;50.834;4.718;2023-04-15T12:04:17;5.25;;;2.88;;
13927;SDS011;7036;50.834;4.718;2023-04-15T12:06:44;2.93;;;2.30;;
13927;SDS011;7036;50.834;4.718;2023-04-15T12:09:12;4.07;;;2.70;;
13927;SDS011;7036;50.834;4.718;2023-04-15T12:11:47;4.80;;;2.28;;
13927;SDS011;7036;50.834;4.718;2023-04-15T12:14:18;5.27;;;3.13;;
13927;SDS011;7036;50.834;4.718;2023-04-15T12:16:46;3.57;;;2.93;;
13927;SDS011;7036;50.834;4.718;2023-04-15T12:19:13;4.53;;;2.90;;
13927;SDS011;7036;50.834;4.718;2023-04-15T12:21:43;3.72;;;2.78;;
13927;SDS011;7036;50.834;4.718;2023-04-15T12:24:08;6.63;;;3.08;;
13927;SDS011;7036;50.834;4.718;2023-04-15T12:26:40;3.83;;;2.75;;
13927;SDS011;7036;50.834;4.718;2023-04-15T12:29:04;3.83;;;2.90;;
13927;SDS011;7036;50.834;4.718;2023-04-15T12:31:32;3.40;;;3.10;;
13927;SDS011;7036;50.834;4.718;2023-04-15T12:33:59;11.98;;;4.32;;
13927;SDS011;7036;50.834;4.718;2023-04-15T12:36:28;5.82;;;3.28;;
13927;SDS011;7036;50.834;4.718;2023-04-15T12:38:55;15.27;;;3.38;;
13927;SDS011;7036;50.834;4.718;2023-04-15T12:41:23;4.28;;;2.88;;
13927;SDS011;7036;50.834;4.718;2023-04-15T12:43:51;5.88;;;3.40;;
13927;SDS011;7036;50.834;4.718;2023-04-15T12:46:19;6.65;;;3.35;;
13927;SDS011;7036;50.834;4.718;2023-04-15T12:48:46;5.78;;;3.40;;
13927;SDS011;7036;50.834;4.718;2023-04-15T12:51:14;9.57;;;3.25;;
13927;SDS011;7036;50.834;4.718;2023-04-15T12:53:42;10.07;;;2.70;;
13927;SDS011;7036;50.834;4.718;2023-04-15T12:56:10;4.57;;;2.90;;
13927;SDS011;7036;50.834;4.718;2023-04-15T12:58:38;4.68;;;3.05;;
13927;SDS011;7036;50.834;4.718;2023-04-15T13:01:06;5.55;;;3.05;;
13927;SDS011;7036;50.834;4.718;2023-04-15T13:03:34;5.40;;;2.63;;
13927;SDS011;7036;50.834;4.718;2023-04-15T13:06:02;5.40;;;2.65;;
13927;SDS011;7036;50.834;4.718;2023-04-15T13:08:30;4.95;;;3.08;;
13927;SDS011;7036;50.834;4.718;2023-04-15T13:10:58;6.50;;;2.53;;
13927;SDS011;7036;50.834;4.718;2023-04-15T13:13:26;5.25;;;2.50;;
13927;SDS011;7036;50.834;4.718;2023-04-15T13:15:54;3.88;;;2.22;;
13927;SDS011;7036;50.834;4.718;2023-04-15T13:18:22;7.57;;;2.60;;
13927;SDS011;7036;50.834;4.718;2023-04-15T13:20:50;4.32;;;2.58;;
13927;SDS011;7036;50.834;4.718;2023-04-15T13:23:18;4.47;;;2.30;;
13927;SDS011;7036;50.834;4.718;2023-04-15T13:25:45;4.13;;;2.33;;
13927;SDS011;7036;50.834;4.718;2023-04-15T13:28:13;3.95;;;2.67;;
13927;SDS011;7036;50.834;4.718;2023-04-15T13:30:40;4.65;;;2.50;;
13927;SDS011;7036;50.834;4.718;2023-04-15T13:33:08;7.90;;;3.00;;
13927;SDS011;7036;50.834;4.718;2023-04-15T13:35:36;6.90;;;2.95;;
13927;SDS011;7036;50.834;4.718;2023-04-15T13:38:03;3.70;;;3.28;;
13927;SDS011;7036;50.834;4.718;2023-04-15T13:40:31;6.32;;;3.25;;
13927;SDS011;7036;50.834;4.718;2023-04-15T13:42:59;5.88;;;3.25;;
13927;SDS011;7036;50.834;4.718;2023-04-15T13:45:27;5.55;;;3.22;;
13927;SDS011;7036;50.834;4.718;2023-04-15T13:47:55;7.00;;;3.00;;
13927;SDS011;7036;50.834;4.718;2023-04-15T13:50:23;3.80;;;2.55;;
13927;SDS011;7036;50.834;4.718;2023-04-15T13:52:51;4.60;;;2.80;;
13927;SDS011;7036;50.834;4.718;2023-04-15T13:55:17;3.57;;;2.60;;
13927;SDS011;7036;50.834;4.718;2023-04-15T13:57:45;4.50;;;2.80;;
13927;SDS011;7036;50.834;4.718;2023-04-15T14:00:12;6.80;;;2.70;;
13927;SDS011;7036;50.834;4.718;2023-04-15T14:02:39;3.85;;;2.40;;
13927;SDS011;7036;50.834;4.718;2023-04-15T14:05:07;5.93;;;2.30;;
13927;SDS011;7036;50.834;4.718;2023-04-15T14:07:34;6.07;;;2.72;;
13927;SDS011;7036;50.834;4.718;2023-04-15T14:10:02;4.97;;;2.13;;
13927;SDS011;7036;50.834;4.718;2023-04-15T14:12:29;4.07;;;2.47;;
13927;SDS011;7036;50.834;4.718;2023-04-15T14:14:57;3.40;;;2.53;;
13927;SDS011;7036;50.834;4.718;2023-04-15T14:17:25;2.78;;;2.30;;
13927;SDS011;7036;50.834;4.718;2023-04-15T14:19:53;4.93;;;2.38;;
13927;SDS011;7036;50.834;4.718;2023-04-15T14:22:21;4.65;;;2.83;;
13927;SDS011;7036;50.834;4.718;2023-04-15T14:24:48;2.55;;;2.15;;
13927;SDS011;7036;50.834;4.718;2023-04-15T14:27:16;3.38;;;2.33;;
13927;SDS011;7036;50.834;4.718;2023-04-15T14:29:44;7.65;;;2.53;;
13927;SDS011;7036;50.834;4.718;2023-04-15T14:32:11;3.15;;;2.00;;
13927;SDS011;7036;50.834;4.718;2023-04-15T14:34:38;4.72;;;2.17;;
13927;SDS011;7036;50.834;4.718;2023-04-15T14:37:06;7.35;;;2.50;;
13927;SDS011;7036;50.834;4.718;2023-04-15T14:39:34;3.75;;;2.30;;
13927;SDS011;7036;50.834;4.718;2023-04-15T14:42:02;6.10;;;2.40;;
13927;SDS011;7036;50.834;4.718;2023-04-15T14:44:30;3.30;;;1.83;;
13927;SDS011;7036;50.834;4.718;2023-04-15T14:46:57;3.80;;;1.70;;
13927;SDS011;7036;50.834;4.718;2023-04-15T14:49:25;2.80;;;1.70;;
13927;SDS011;7036;50.834;4.718;2023-04-15T14:51:53;2.65;;;1.67;;
13927;SDS011;7036;50.834;4.718;2023-04-15T14:54:20;4.10;;;1.95;;
13927;SDS011;7036;50.834;4.718;2023-04-15T14:56:47;4.82;;;2.00;;
13927;SDS011;7036;50.834;4.718;2023-04-15T14:59:15;2.53;;;1.65;;
13927;SDS011;7036;50.834;4.718;2023-04-15T15:01:42;6.40;;;1.80;;
13927;SDS011;7036;50.834;4.718;2023-04-15T15:04:10;3.20;;;1.70;;
13927;SDS011;7036;50.834;4.718;2023-04-15T15:06:38;1.80;;;1.70;;
13927;SDS011;7036;50.834;4.718;2023-04-15T15:09:06;2.28;;;1.67;;
13927;SDS011;7036;50.834;4.718;2023-04-15T15:11:34;3.10;;;1.77;;